Time;durP1;ratioP1;P1;durP2;ratioP2;P2;SDS_P1;SDS_P2;PMS_P1;PMS_P2;Temp;Humidity;BMP_temperature;BMP_pressure;BME280_temperature;BME280_humidity;BME280_pressure;Samples;Min_cycle;Max_cycle;Signal;HPM_P1;HPM_P2
2021/05/21 00:01:22;;;;;;;1.43;1.33;;;11.30;99.90;;;;;;494092;241;28136;-73
2021/05/21 00:03:22;;;;;;;1.60;1.50;;;11.30;99.90;;;;;;494110;241;28227;-74
2021/05/21 00:05:23;;;;;;;1.60;1.50;;;11.30;99.90;;;;;;494209;241;28617;-72
2021/05/21 00:07:24;;;;;;;3.80;1.30;;;11.30;99.90;;;;;;494181;241;28616;-73
2021/05/21 00:09:25;;;;;;;1.13;1.13;;;11.20;99.90;;;;;;494145;241;29415;-73
2021/05/21 00:11:27;;;;;;;1.23;1.13;;;11.20;99.90;;;;;;494088;241;28528;-73
2021/05/21 00:13:28;;;;;;;7.23;1.30;;;11.30;99.90;;;;;;494215;241;28537;-73
2021/05/21 00:15:29;;;;;;;1.43;1.33;;;11.20;99.90;;;;;;494206;237;28723;-72
2021/05/21 00:17:30;;;;;;;3.23;1.30;;;11.30;99.90;;;;;;494101;241;28333;-73
2021/05/21 00:19:32;;;;;;;2.07;1.50;;;11.30;99.90;;;;;;494204;237;28204;-73
2021/05/21 00:21:34;;;;;;;1.20;1.20;;;;;;;;;;494190;241;28232;-73
2021/05/21 00:23:35;;;;;;;4.33;1.70;;;11.30;99.90;;;;;;494182;237;27625;-73
2021/05/21 00:25:37;;;;;;;1.60;1.50;;;11.30;99.90;;;;;;493843;241;28803;-73
2021/05/21 00:27:38;;;;;;;1.40;1.30;;;11.30;99.90;;;;;;494102;241;28606;-73
2021/05/21 00:29:39;;;;;;;1.30;1.20;;;11.40;99.90;;;;;;494164;241;28074;-73
2021/05/21 00:31:40;;;;;;;1.33;1.23;;;11.30;99.90;;;;;;494197;241;28215;-75
2021/05/21 00:33:42;;;;;;;1.43;1.33;;;11.40;99.90;;;;;;494178;241;28149;-72
2021/05/21 00:35:43;;;;;;;2.50;1.30;;;11.40;99.90;;;;;;494198;241;28295;-73
2021/05/21 00:37:44;;;;;;;1.40;1.30;;;11.40;99.90;;;;;;494164;241;28248;-72
2021/05/21 00:39:45;;;;;;;4.17;1.50;;;11.40;99.90;;;;;;494052;241;28299;-73
2021/05/21 00:41:47;;;;;;;1.50;1.40;;;11.50;99.90;;;;;;494169;241;28188;-73
2021/05/21 00:43:48;;;;;;;1.23;1.20;;;11.50;99.90;;;;;;494190;241;28348;-73
2021/05/21 00:45:49;;;;;;;4.20;1.63;;;11.50;99.90;;;;;;494197;241;28194;-74
2021/05/21 00:47:50;;;;;;;1.80;1.50;;;11.50;99.90;;;;;;494198;241;28627;-73
2021/05/21 00:49:52;;;;;;;2.50;1.43;;;11.50;99.90;;;;;;494191;239;28499;-74
2021/05/21 00:51:53;;;;;;;1.70;1.57;;;11.50;99.90;;;;;;494096;241;28713;-74
2021/05/21 00:53:54;;;;;;;3.60;1.40;;;11.50;99.90;;;;;;494089;241;28148;-72
2021/05/21 00:55:55;;;;;;;1.20;1.20;;;11.50;99.90;;;;;;493830;241;28392;-74
2021/05/21 00:57:57;;;;;;;1.40;1.30;;;11.50;99.90;;;;;;494010;241;28186;-73
2021/05/21 00:59:58;;;;;;;1.30;1.20;;;11.50;99.90;;;;;;494048;241;28288;-74
2021/05/21 01:01:59;;;;;;;1.40;1.30;;;11.50;99.90;;;;;;494084;241;28671;-73
2021/05/21 01:04:00;;;;;;;11.10;1.70;;;11.50;99.90;;;;;;494103;241;28259;-73
2021/05/21 01:06:02;;;;;;;1.57;1.47;;;11.50;99.90;;;;;;494089;241;28215;-73
2021/05/21 01:08:03;;;;;;;2.13;1.57;;;11.50;99.90;;;;;;494084;241;28798;-73
2021/05/21 01:10:04;;;;;;;2.70;1.47;;;11.40;99.90;;;;;;494191;241;28337;-74
2021/05/21 01:12:05;;;;;;;1.60;1.50;;;11.40;99.90;;;;;;494209;241;28843;-74
2021/05/21 01:14:07;;;;;;;1.30;1.20;;;11.40;99.90;;;;;;494176;237;29746;-73
2021/05/21 01:16:08;;;;;;;2.20;1.30;;;11.40;99.90;;;;;;494184;241;28776;-74
2021/05/21 01:18:09;;;;;;;2.23;1.80;;;11.40;99.90;;;;;;494154;241;28064;-74
2021/05/21 01:20:10;;;;;;;1.40;1.30;;;11.50;99.90;;;;;;494087;239;28305;-74
2021/05/21 01:22:12;;;;;;;1.20;1.20;;;11.50;99.90;;;;;;494098;239;28207;-74
2021/05/21 01:24:13;;;;;;;2.30;1.37;;;11.60;99.90;;;;;;494117;241;28611;-73
2021/05/21 01:26:15;;;;;;;1.53;1.37;;;;;;;;;;494110;241;28251;-73
2021/05/21 01:28:18;;;;;;;2.80;1.50;;;11.60;99.90;;;;;;494080;241;27702;-74
2021/05/21 01:30:18;;;;;;;1.47;1.37;;;11.60;99.90;;;;;;494061;241;28072;-74
2021/05/21 01:32:19;;;;;;;4.20;1.43;;;11.60;99.90;;;;;;494150;241;28209;-74
2021/05/21 01:34:20;;;;;;;1.67;1.10;;;11.60;99.90;;;;;;494180;241;28298;-75
2021/05/21 01:36:22;;;;;;;1.40;1.30;;;11.60;99.90;;;;;;494073;241;28312;-73
2021/05/21 01:38:23;;;;;;;1.47;1.37;;;11.60;99.90;;;;;;494071;241;28449;-74
2021/05/21 01:40:24;;;;;;;4.40;1.57;;;11.50;99.90;;;;;;494156;241;28280;-74
2021/05/21 01:42:25;;;;;;;1.90;1.50;;;11.50;99.90;;;;;;494049;241;28383;-73
2021/05/21 01:44:27;;;;;;;4.20;1.30;;;11.60;99.90;;;;;;494079;241;28225;-74
2021/05/21 01:46:28;;;;;;;1.30;1.20;;;11.60;99.90;;;;;;494081;241;28503;-73
2021/05/21 01:48:29;;;;;;;4.10;1.27;;;11.50;99.90;;;;;;494083;241;28628;-74
2021/05/21 01:50:30;;;;;;;1.30;1.20;;;11.50;99.90;;;;;;494075;241;28708;-73
2021/05/21 01:52:32;;;;;;;2.50;1.67;;;11.50;99.90;;;;;;494050;241;28748;-73
2021/05/21 01:54:33;;;;;;;3.23;1.60;;;11.50;99.90;;;;;;494075;241;28322;-74
2021/05/21 01:56:34;;;;;;;1.50;1.40;;;11.50;99.90;;;;;;494081;241;28429;-74
2021/05/21 01:58:35;;;;;;;1.77;1.30;;;11.50;99.90;;;;;;494090;241;28238;-73
2021/05/21 02:00:37;;;;;;;1.53;1.20;;;11.50;99.90;;;;;;494063;241;28174;-73
2021/05/21 02:02:38;;;;;;;2.50;1.40;;;11.50;99.90;;;;;;494071;241;28315;-74
2021/05/21 02:04:39;;;;;;;2.43;1.40;;;11.50;99.90;;;;;;493303;237;28680;-73
2021/05/21 02:06:40;;;;;;;1.90;1.20;;;11.50;99.90;;;;;;493909;241;28068;-73
2021/05/21 02:08:42;;;;;;;4.90;1.40;;;11.50;99.90;;;;;;494069;237;28114;-74
2021/05/21 02:10:43;;;;;;;1.30;1.30;;;11.40;99.90;;;;;;494084;241;28164;-73
2021/05/21 02:12:44;;;;;;;3.03;1.30;;;11.40;99.90;;;;;;494071;241;28639;-73
2021/05/21 02:14:45;;;;;;;2.10;1.20;;;11.40;99.90;;;;;;494156;237;28766;-74
2021/05/21 02:16:48;;;;;;;1.50;1.40;;;11.40;99.90;;;;;;494183;241;28625;-73
2021/05/21 02:18:48;;;;;;;2.40;1.50;;;11.40;99.90;;;;;;494097;241;28158;-73
2021/05/21 02:20:49;;;;;;;2.03;1.50;;;11.40;99.90;;;;;;494113;241;28182;-74
2021/05/21 02:22:50;;;;;;;1.33;1.20;;;11.40;99.90;;;;;;494168;239;28099;-74
2021/05/21 02:24:52;;;;;;;1.40;1.30;;;11.50;99.90;;;;;;494133;241;28299;-74
2021/05/21 02:26:53;;;;;;;3.03;1.50;;;11.50;99.90;;;;;;494098;241;28077;-73
2021/05/21 02:28:54;;;;;;;5.03;1.30;;;11.50;99.90;;;;;;494072;241;28184;-74
2021/05/21 02:30:55;;;;;;;1.30;1.20;;;11.50;99.90;;;;;;494082;241;28161;-74
2021/05/21 02:32:57;;;;;;;1.53;1.43;;;11.50;99.90;;;;;;494134;241;28412;-73
2021/05/21 02:34:58;;;;;;;1.17;1.10;;;11.50;99.90;;;;;;494080;241;28086;-75
2021/05/21 02:36:59;;;;;;;2.60;1.23;;;11.50;99.90;;;;;;494151;241;28787;-73
2021/05/21 02:39:01;;;;;;;2.20;1.20;;;11.50;99.90;;;;;;494103;237;28713;-74
2021/05/21 02:41:02;;;;;;;2.20;1.20;;;11.50;99.90;;;;;;494095;241;28649;-73
2021/05/21 02:43:03;;;;;;;1.53;1.20;;;11.50;99.90;;;;;;494007;241;28100;-73
2021/05/21 02:45:04;;;;;;;3.83;1.50;;;11.50;99.90;;;;;;494040;241;28297;-73
2021/05/21 02:47:05;;;;;;;1.27;1.13;;;11.50;99.90;;;;;;494045;237;28186;-73
2021/05/21 02:49:07;;;;;;;3.27;1.30;;;11.50;99.90;;;;;;494036;241;28308;-73
2021/05/21 02:51:08;;;;;;;2.40;1.63;;;11.40;99.90;;;;;;494067;241;28254;-73
2021/05/21 02:53:09;;;;;;;1.93;1.40;;;11.40;99.90;;;;;;494187;241;28302;-73
2021/05/21 02:55:10;;;;;;;1.30;1.17;;;11.40;99.90;;;;;;494161;241;28195;-73
2021/05/21 02:57:12;;;;;;;1.20;1.20;;;11.40;99.90;;;;;;494169;241;28176;-73
2021/05/21 02:59:13;;;;;;;1.30;1.20;;;11.40;99.90;;;;;;494084;241;28290;-73
2021/05/21 03:01:14;;;;;;;1.30;1.20;;;11.40;99.90;;;;;;494097;241;28301;-73
2021/05/21 03:03:16;;;;;;;1.77;1.20;;;11.40;99.90;;;;;;494102;241;27951;-73
2021/05/21 03:05:22;;;;;;;1.17;1.17;;;11.30;99.90;;;;;;494168;241;28394;-72
2021/05/21 03:07:18;;;;;;;1.30;1.30;;;11.30;99.90;;;;;;493703;241;28170;-73
2021/05/21 03:09:19;;;;;;;1.10;1.10;;;11.30;99.90;;;;;;494088;241;28085;-73
2021/05/21 03:11:21;;;;;;;1.47;1.37;;;11.30;99.90;;;;;;494155;241;28210;-73
2021/05/21 03:13:22;;;;;;;3.37;1.50;;;11.20;99.90;;;;;;493945;241;28190;-73
2021/05/21 03:15:25;;;;;;;2.80;1.50;;;11.20;99.90;;;;;;493991;239;28517;-74
2021/05/21 03:17:24;;;;;;;1.20;1.20;;;11.20;99.90;;;;;;493890;241;28750;-73
2021/05/21 03:19:26;;;;;;;1.40;1.40;;;11.20;99.90;;;;;;494091;241;28457;-73
2021/05/21 03:21:27;;;;;;;3.13;1.43;;;11.10;99.90;;;;;;494085;241;28421;-73
2021/05/21 03:23:28;;;;;;;1.43;1.23;;;11.10;99.90;;;;;;494088;241;28710;-73
2021/05/21 03:25:29;;;;;;;1.50;1.37;;;11.10;99.90;;;;;;494107;241;28245;-73
2021/05/21 03:27:31;;;;;;;1.07;1.07;;;11.10;99.90;;;;;;494092;241;28038;-73
2021/05/21 03:29:32;;;;;;;2.00;1.20;;;11.10;99.90;;;;;;494109;241;28231;-74
2021/05/21 03:31:33;;;;;;;4.00;1.60;;;11.00;99.90;;;;;;494074;241;28247;-73
2021/05/21 03:33:34;;;;;;;1.77;1.33;;;11.00;99.90;;;;;;494130;241;28116;-73
2021/05/21 03:35:36;;;;;;;1.17;1.17;;;11.00;99.90;;;;;;494073;239;28129;-73
2021/05/21 03:37:37;;;;;;;1.80;1.20;;;11.00;99.90;;;;;;494050;237;28142;-73
2021/05/21 03:39:38;;;;;;;1.10;1.00;;;11.00;99.90;;;;;;494072;241;28098;-73
2021/05/21 03:41:39;;;;;;;1.30;1.20;;;11.00;99.90;;;;;;494092;241;27927;-73
2021/05/21 03:43:41;;;;;;;1.87;1.20;;;11.00;99.90;;;;;;494128;241;28563;-73
2021/05/21 03:45:42;;;;;;;1.80;1.40;;;11.00;99.90;;;;;;494137;241;28522;-72
2021/05/21 03:47:43;;;;;;;1.80;1.27;;;11.00;99.90;;;;;;494157;241;28759;-73
2021/05/21 03:49:44;;;;;;;3.17;1.33;;;11.00;99.90;;;;;;494093;241;28083;-73
2021/05/21 03:51:46;;;;;;;2.23;1.50;;;11.00;99.90;;;;;;494178;241;28016;-73
2021/05/21 03:53:47;;;;;;;2.03;1.30;;;11.00;99.90;;;;;;494052;241;28224;-73
2021/05/21 03:55:48;;;;;;;2.73;1.20;;;10.90;99.90;;;;;;494072;241;28015;-72
2021/05/21 03:57:49;;;;;;;1.63;1.23;;;11.00;99.90;;;;;;494031;241;27828;-72
2021/05/21 03:59:51;;;;;;;2.13;1.57;;;11.00;99.90;;;;;;494074;241;28119;-73
2021/05/21 04:01:52;;;;;;;1.53;1.43;;;11.00;99.90;;;;;;494158;241;28080;-72
2021/05/21 04:03:55;;;;;;;3.90;1.30;;;11.00;99.90;;;;;;494134;241;28242;-73
2021/05/21 04:05:54;;;;;;;1.40;1.30;;;11.00;99.90;;;;;;494080;241;28033;-72
2021/05/21 04:07:56;;;;;;;1.30;1.20;;;11.00;99.90;;;;;;494167;241;28443;-73
2021/05/21 04:09:57;;;;;;;2.20;1.40;;;11.10;99.90;;;;;;494075;241;28599;-73
2021/05/21 04:11:58;;;;;;;1.47;1.20;;;11.10;99.90;;;;;;494100;241;28578;-73
2021/05/21 04:13:59;;;;;;;1.50;1.40;;;11.10;99.90;;;;;;494109;241;27823;-74
2021/05/21 04:16:01;;;;;;;1.73;1.37;;;11.10;99.90;;;;;;494106;241;27942;-73
2021/05/21 04:18:02;;;;;;;2.10;1.27;;;11.10;99.90;;;;;;494177;241;28114;-74
2021/05/21 04:20:03;;;;;;;1.20;1.10;;;11.10;99.90;;;;;;493836;241;28102;-72
2021/05/21 04:22:04;;;;;;;10.60;1.80;;;11.10;99.90;;;;;;493942;241;28093;-72
2021/05/21 04:24:06;;;;;;;2.47;1.60;;;11.10;99.90;;;;;;493799;241;28045;-73
2021/05/21 04:26:07;;;;;;;4.00;1.60;;;11.20;99.90;;;;;;494040;241;28164;-73
2021/05/21 04:28:10;;;;;;;2.70;1.20;;;11.20;99.90;;;;;;494102;241;28314;-72
2021/05/21 04:30:09;;;;;;;4.43;1.73;;;11.30;99.90;;;;;;494005;241;28683;-75
2021/05/21 04:32:11;;;;;;;1.60;1.50;;;11.20;99.90;;;;;;494096;241;28620;-73
2021/05/21 04:34:12;;;;;;;1.50;1.40;;;11.30;99.90;;;;;;494192;239;28559;-73
2021/05/21 04:36:13;;;;;;;1.37;1.27;;;11.40;99.90;;;;;;493751;241;28701;-73
2021/05/21 04:38:14;;;;;;;1.47;1.37;;;11.40;99.90;;;;;;494106;237;28273;-73
2021/05/21 04:40:16;;;;;;;1.30;1.20;;;11.50;99.90;;;;;;494108;241;28297;-73
2021/05/21 04:42:17;;;;;;;2.90;1.30;;;11.50;99.90;;;;;;494121;241;28203;-72
2021/05/21 04:44:18;;;;;;;1.40;1.30;;;11.50;99.90;;;;;;494067;241;28368;-73
2021/05/21 04:46:19;;;;;;;1.30;1.20;;;11.60;99.90;;;;;;494085;241;28318;-73
2021/05/21 04:48:21;;;;;;;1.30;1.20;;;11.70;99.90;;;;;;494101;241;28427;-73
2021/05/21 04:50:22;;;;;;;1.40;1.30;;;11.70;99.90;;;;;;494081;241;28316;-74
2021/05/21 04:52:23;;;;;;;1.37;1.30;;;11.70;99.90;;;;;;494202;241;28359;-73
2021/05/21 04:54:24;;;;;;;1.23;1.13;;;11.70;99.90;;;;;;494201;241;28309;-73
2021/05/21 04:56:26;;;;;;;2.10;1.60;;;11.80;99.90;;;;;;494178;241;28753;-74
2021/05/21 04:58:27;;;;;;;1.63;1.20;;;11.80;99.90;;;;;;493660;241;28930;-73
2021/05/21 05:00:28;;;;;;;4.90;1.73;;;11.80;99.90;;;;;;494049;241;29478;-73
2021/05/21 05:02:29;;;;;;;2.50;1.60;;;11.80;99.90;;;;;;494083;241;28295;-73
2021/05/21 05:04:32;;;;;;;2.50;1.10;;;11.90;99.90;;;;;;494089;241;28375;-73
2021/05/21 05:06:32;;;;;;;1.70;1.30;;;11.90;99.90;;;;;;494043;241;28568;-73
2021/05/21 05:08:33;;;;;;;3.23;1.33;;;11.90;99.90;;;;;;494178;241;28415;-74
2021/05/21 05:10:34;;;;;;;1.67;1.10;;;11.90;99.90;;;;;;494139;241;27915;-73
2021/05/21 05:12:36;;;;;;;4.47;2.00;;;11.90;99.90;;;;;;494140;241;28296;-73
2021/05/21 05:14:37;;;;;;;1.83;1.10;;;12.00;99.90;;;;;;494135;237;28504;-74
2021/05/21 05:16:38;;;;;;;1.87;1.20;;;12.00;99.90;;;;;;494171;241;28291;-73
2021/05/21 05:18:39;;;;;;;1.60;1.50;;;12.10;99.90;;;;;;494173;239;29022;-73
2021/05/21 05:20:41;;;;;;;2.03;1.37;;;12.10;99.90;;;;;;494186;241;28840;-72
2021/05/21 05:22:42;;;;;;;2.30;1.53;;;12.10;99.90;;;;;;494163;241;29286;-73
2021/05/21 05:24:43;;;;;;;2.80;1.40;;;12.20;99.90;;;;;;494191;241;29013;-74
2021/05/21 05:26:44;;;;;;;2.10;1.40;;;12.20;99.90;;;;;;494166;241;28158;-73
2021/05/21 05:28:46;;;;;;;1.80;1.50;;;12.20;99.90;;;;;;494199;241;28053;-74
2021/05/21 05:30:47;;;;;;;2.90;1.50;;;12.30;99.90;;;;;;494015;237;28285;-73
2021/05/21 05:32:48;;;;;;;2.10;1.20;;;12.30;99.90;;;;;;493521;237;28420;-73
2021/05/21 05:34:49;;;;;;;1.50;1.20;;;12.40;99.90;;;;;;493597;241;28846;-73
2021/05/21 05:36:51;;;;;;;2.90;1.20;;;12.40;99.90;;;;;;494016;241;28392;-73
2021/05/21 05:38:53;;;;;;;2.17;1.40;;;;;;;;;;494084;241;28430;-73
2021/05/21 05:40:54;;;;;;;1.40;1.30;;;12.40;99.90;;;;;;494078;241;27022;-73
2021/05/21 05:42:56;;;;;;;2.93;1.23;;;12.50;99.90;;;;;;494083;239;28405;-74
2021/05/21 05:44:57;;;;;;;1.43;1.30;;;12.60;99.90;;;;;;494103;241;28617;-73
2021/05/21 05:46:58;;;;;;;1.53;1.37;;;12.60;99.90;;;;;;494103;241;28313;-73
2021/05/21 05:49:01;;;;;;;3.33;1.37;;;;;;;;;;494108;241;28178;-73
2021/05/21 05:51:02;;;;;;;3.20;1.60;;;12.60;99.90;;;;;;494123;241;26644;-73
2021/05/21 05:53:03;;;;;;;2.10;1.60;;;12.70;99.90;;;;;;494107;241;28291;-74
2021/05/21 05:55:04;;;;;;;1.53;1.30;;;12.70;99.90;;;;;;494096;241;28298;-74
2021/05/21 05:57:06;;;;;;;2.10;1.30;;;12.70;99.90;;;;;;494077;241;28158;-74
2021/05/21 05:59:07;;;;;;;1.60;1.33;;;12.70;99.90;;;;;;494082;241;28227;-74
2021/05/21 06:01:08;;;;;;;1.83;1.37;;;12.80;99.90;;;;;;494105;241;28630;-74
2021/05/21 06:03:09;;;;;;;3.33;1.50;;;12.80;99.90;;;;;;494119;241;28270;-74
2021/05/21 06:05:11;;;;;;;1.53;1.43;;;12.80;99.90;;;;;;494096;241;28219;-74
2021/05/21 06:07:12;;;;;;;1.20;1.10;;;12.80;99.90;;;;;;494052;241;28265;-74
2021/05/21 06:09:13;;;;;;;5.13;1.40;;;12.90;99.90;;;;;;494069;241;28821;-74
2021/05/21 06:11:14;;;;;;;3.80;1.10;;;12.90;99.90;;;;;;494139;241;28703;-75
2021/05/21 06:13:16;;;;;;;1.50;1.30;;;12.90;99.90;;;;;;494140;239;28853;-74
2021/05/21 06:15:17;;;;;;;1.77;1.20;;;13.00;99.90;;;;;;494032;241;28214;-74
2021/05/21 06:17:18;;;;;;;4.00;1.43;;;13.00;99.90;;;;;;494152;239;28239;-74
2021/05/21 06:19:19;;;;;;;2.70;1.30;;;13.00;99.90;;;;;;494059;237;28268;-74
2021/05/21 06:21:21;;;;;;;2.83;1.40;;;13.10;99.90;;;;;;494059;237;28278;-74
2021/05/21 06:23:22;;;;;;;2.50;1.37;;;13.10;99.90;;;;;;494063;241;28375;-74
2021/05/21 06:25:38;;;;;;;5.53;1.53;;;13.10;99.90;;;;;;494171;241;28223;-75
2021/05/21 06:27:26;;;;;;;3.47;1.70;;;13.20;99.90;;;;;;492909;241;28193;-74
2021/05/21 06:29:26;;;;;;;3.90;1.50;;;13.30;99.90;;;;;;494018;241;28299;-74
2021/05/21 06:31:27;;;;;;;6.53;1.43;;;13.30;99.90;;;;;;494151;237;28346;-74
2021/05/21 06:33:28;;;;;;;1.77;1.40;;;13.30;99.90;;;;;;494122;241;29226;-74
2021/05/21 06:35:29;;;;;;;1.63;1.23;;;13.40;99.90;;;;;;494143;239;28725;-74
2021/05/21 06:37:31;;;;;;;5.67;1.47;;;13.40;99.90;;;;;;494152;237;29042;-74
2021/05/21 06:39:32;;;;;;;1.37;1.27;;;13.50;99.90;;;;;;494147;241;28429;-75
2021/05/21 06:41:33;;;;;;;10.23;1.70;;;13.40;99.90;;;;;;494082;237;28421;-74
2021/05/21 06:43:34;;;;;;;3.63;1.30;;;13.40;99.90;;;;;;494170;241;28420;-74
2021/05/21 06:45:36;;;;;;;6.10;1.63;;;13.50;99.90;;;;;;494075;241;28417;-75
2021/05/21 06:47:37;;;;;;;1.10;1.00;;;13.50;99.90;;;;;;494076;241;28399;-74
2021/05/21 06:49:39;;;;;;;2.67;1.43;;;13.60;99.90;;;;;;494126;241;28181;-74
2021/05/21 06:51:39;;;;;;;1.53;1.43;;;13.70;99.90;;;;;;494024;241;28450;-74
2021/05/21 06:53:41;;;;;;;3.10;1.53;;;13.70;99.90;;;;;;494101;241;28529;-74
2021/05/21 06:55:43;;;;;;;2.40;1.50;;;13.70;99.90;;;;;;494147;241;28408;-74
2021/05/21 06:57:43;;;;;;;1.70;1.40;;;13.80;99.90;;;;;;494107;241;29422;-74
2021/05/21 06:59:44;;;;;;;5.80;1.60;;;13.70;99.90;;;;;;494087;241;29408;-74
2021/05/21 07:01:46;;;;;;;3.13;1.60;;;13.70;99.90;;;;;;494031;241;29378;-74
2021/05/21 07:03:50;;;;;;;3.53;2.00;;;13.60;99.90;;;;;;494089;241;28785;-74
2021/05/21 07:05:51;;;;;;;3.60;1.90;;;13.50;99.90;;;;;;494047;241;28903;-73
2021/05/21 07:07:52;;;;;;;3.43;1.80;;;13.30;99.90;;;;;;494059;241;28866;-74
2021/05/21 07:09:53;;;;;;;1.90;1.50;;;13.20;99.90;;;;;;493881;241;28445;-74
2021/05/21 07:11:55;;;;;;;1.83;1.37;;;13.20;99.90;;;;;;493960;241;28718;-74
2021/05/21 07:13:57;;;;;;;1.47;1.37;;;13.10;99.90;;;;;;494094;237;28848;-74
2021/05/21 07:15:57;;;;;;;1.30;1.20;;;13.10;99.90;;;;;;493951;241;28910;-74
2021/05/21 07:17:58;;;;;;;1.60;1.20;;;13.10;99.90;;;;;;494126;241;28311;-74
2021/05/21 07:20:00;;;;;;;3.10;1.80;;;13.10;99.90;;;;;;494085;237;28279;-74
2021/05/21 07:22:01;;;;;;;1.60;1.50;;;13.00;99.90;;;;;;494096;239;28895;-73
2021/05/21 07:24:02;;;;;;;9.93;1.50;;;13.00;99.90;;;;;;494082;237;28382;-74
2021/05/21 07:26:03;;;;;;;6.63;1.50;;;12.90;99.90;;;;;;493995;239;28336;-73
2021/05/21 07:28:05;;;;;;;3.80;1.47;;;13.00;99.90;;;;;;494080;237;28204;-74
2021/05/21 07:30:06;;;;;;;4.70;1.70;;;13.00;99.90;;;;;;494045;241;28187;-74
2021/05/21 07:32:09;;;;;;;1.60;1.47;;;12.90;99.90;;;;;;494073;241;28367;-74
2021/05/21 07:34:08;;;;;;;5.97;1.93;;;12.90;99.90;;;;;;493976;241;28730;-73
2021/05/21 07:36:10;;;;;;;2.40;2.00;;;12.90;99.90;;;;;;494062;241;28679;-74
2021/05/21 07:38:11;;;;;;;5.23;1.70;;;12.90;99.90;;;;;;494099;241;28868;-74
2021/05/21 07:40:12;;;;;;;1.50;1.40;;;12.80;99.90;;;;;;494085;241;28626;-75
2021/05/21 07:42:13;;;;;;;4.03;1.43;;;12.90;99.90;;;;;;494087;241;28431;-73
2021/05/21 07:44:16;;;;;;;1.63;1.27;;;12.80;99.90;;;;;;494094;241;28724;-74
2021/05/21 07:46:16;;;;;;;1.40;1.20;;;12.80;99.90;;;;;;494097;241;28206;-73
2021/05/21 07:48:17;;;;;;;2.60;1.20;;;12.80;99.90;;;;;;494105;241;28203;-73
2021/05/21 07:50:20;;;;;;;4.53;1.63;;;;;;;;;;494116;241;28274;-73
2021/05/21 07:52:21;;;;;;;9.90;2.90;;;12.80;99.90;;;;;;494133;241;27500;-73
2021/05/21 07:54:22;;;;;;;9.27;3.23;;;12.90;99.90;;;;;;494114;241;28195;-73
2021/05/21 07:56:23;;;;;;;7.10;3.00;;;12.90;99.90;;;;;;494012;241;28424;-73
2021/05/21 07:58:25;;;;;;;2.33;1.50;;;12.90;99.90;;;;;;494100;241;28413;-73
2021/05/21 08:00:26;;;;;;;2.60;1.40;;;13.00;99.90;;;;;;494076;241;28198;-73
2021/05/21 08:02:27;;;;;;;2.33;1.67;;;13.00;99.90;;;;;;494090;241;28178;-73
2021/05/21 08:04:28;;;;;;;4.90;1.63;;;13.00;99.90;;;;;;494162;241;28333;-72
2021/05/21 08:06:30;;;;;;;1.40;1.30;;;13.00;99.90;;;;;;494165;241;28264;-73
2021/05/21 08:08:32;;;;;;;3.83;1.60;;;12.90;99.90;;;;;;494086;241;28451;-73
2021/05/21 08:10:32;;;;;;;5.03;1.70;;;13.00;99.90;;;;;;494061;241;28437;-73
2021/05/21 08:12:33;;;;;;;4.07;1.40;;;13.00;99.90;;;;;;494096;241;29297;-73
2021/05/21 08:14:35;;;;;;;5.70;1.90;;;13.10;99.90;;;;;;494115;241;28855;-73
2021/05/21 08:16:36;;;;;;;2.77;1.57;;;13.30;99.90;;;;;;494074;241;29059;-74
2021/05/21 08:18:37;;;;;;;2.27;1.77;;;13.40;99.90;;;;;;494102;241;28491;-73
2021/05/21 08:20:38;;;;;;;3.50;1.77;;;13.40;99.90;;;;;;494057;241;28534;-73
2021/05/21 08:22:40;;;;;;;4.83;1.77;;;13.50;99.90;;;;;;494119;241;28493;-74
2021/05/21 08:24:41;;;;;;;4.80;1.60;;;13.50;99.90;;;;;;494156;239;28513;-73
2021/05/21 08:26:42;;;;;;;2.50;1.80;;;13.50;99.90;;;;;;494095;241;28925;-73
2021/05/21 08:28:44;;;;;;;5.10;2.00;;;13.40;99.90;;;;;;494111;241;29173;-73
2021/05/21 08:30:45;;;;;;;4.20;2.10;;;13.50;99.90;;;;;;493941;241;28807;-75
2021/05/21 08:32:48;;;;;;;4.27;1.57;;;13.50;99.90;;;;;;494087;241;28797;-75
2021/05/21 08:34:47;;;;;;;6.53;1.60;;;13.30;99.90;;;;;;493961;241;29196;-73
2021/05/21 08:36:48;;;;;;;5.97;2.50;;;13.30;99.90;;;;;;494138;241;29248;-73
2021/05/21 08:38:50;;;;;;;4.87;2.47;;;13.30;99.90;;;;;;494149;241;29383;-73
2021/05/21 08:40:52;;;;;;;6.10;2.77;;;13.20;99.90;;;;;;494136;237;29322;-73
2021/05/21 08:42:56;;;;;;;11.47;4.83;;;13.30;99.90;;;;;;494178;241;28574;-73
2021/05/21 08:44:53;;;;;;;6.90;2.53;;;13.50;99.90;;;;;;493847;241;28844;-73
2021/05/21 08:46:55;;;;;;;3.00;1.77;;;13.60;99.90;;;;;;494069;241;28811;-74
2021/05/21 08:48:56;;;;;;;4.87;2.10;;;13.60;99.90;;;;;;494089;241;28846;-73
2021/05/21 08:50:57;;;;;;;5.70;2.17;;;13.50;99.90;;;;;;494049;241;29184;-73
2021/05/21 08:52:58;;;;;;;1.60;1.50;;;13.40;99.90;;;;;;494078;241;28839;-73
2021/05/21 08:55:00;;;;;;;3.73;1.77;;;13.50;99.90;;;;;;494094;241;28834;-73
2021/05/21 08:57:01;;;;;;;2.00;1.57;;;13.70;99.90;;;;;;494091;237;28886;-74
2021/05/21 08:59:02;;;;;;;4.27;1.73;;;13.70;99.90;;;;;;494106;241;29333;-74
2021/05/21 09:01:03;;;;;;;6.53;1.70;;;13.70;99.90;;;;;;494100;241;29402;-74
2021/05/21 09:03:05;;;;;;;2.20;1.73;;;13.90;99.90;;;;;;493989;241;29329;-74
2021/05/21 09:05:06;;;;;;;4.20;1.60;;;13.80;99.90;;;;;;493607;241;29758;-75
2021/05/21 09:07:07;;;;;;;2.97;2.00;;;13.50;99.90;;;;;;494179;241;28792;-73
2021/05/21 09:09:11;;;;;;;3.73;1.63;;;13.50;99.90;;;;;;494185;241;28939;-73
2021/05/21 09:11:10;;;;;;;3.33;1.90;;;13.50;99.90;;;;;;493941;241;28835;-72
2021/05/21 09:13:11;;;;;;;1.73;1.63;;;13.50;99.90;;;;;;494184;241;28834;-73
2021/05/21 09:15:13;;;;;;;3.93;2.13;;;13.50;99.90;;;;;;494193;239;28845;-72
2021/05/21 09:17:13;;;;;;;2.03;1.83;;;13.60;99.90;;;;;;494155;241;29279;-72
2021/05/21 09:19:15;;;;;;;2.83;1.97;;;13.80;99.90;;;;;;494181;237;28811;-73
2021/05/21 09:21:17;;;;;;;1.90;1.70;;;14.10;99.90;;;;;;494182;241;28786;-72
2021/05/21 09:23:17;;;;;;;2.53;1.60;;;14.20;99.90;;;;;;494073;241;29370;-72
2021/05/21 09:25:18;;;;;;;6.43;1.90;;;14.10;99.90;;;;;;494126;241;29403;-72
2021/05/21 09:27:20;;;;;;;4.13;1.90;;;14.40;99.90;;;;;;494103;241;29334;-76
2021/05/21 09:29:21;;;;;;;5.37;2.50;;;14.30;99.90;;;;;;494110;237;29330;-75
2021/05/21 09:31:23;;;;;;;6.27;2.13;;;14.30;99.90;;;;;;494139;241;28877;-72
2021/05/21 09:33:23;;;;;;;8.20;2.80;;;14.50;99.90;;;;;;494107;241;29372;-73
2021/05/21 09:35:25;;;;;;;1.77;1.67;;;14.50;99.90;;;;;;494188;241;28810;-73
2021/05/21 09:37:26;;;;;;;3.27;2.10;;;14.50;99.90;;;;;;494102;241;28794;-74
2021/05/21 09:39:27;;;;;;;4.43;1.97;;;14.30;99.90;;;;;;494048;241;28932;-73
2021/05/21 09:41:28;;;;;;;5.63;1.70;;;14.10;99.90;;;;;;494117;241;28899;-73
2021/05/21 09:43:30;;;;;;;4.50;1.77;;;13.90;99.90;;;;;;494153;241;28855;-73
2021/05/21 09:45:32;;;;;;;1.90;1.50;;;13.90;99.90;;;;;;494082;241;28868;-73
2021/05/21 09:47:32;;;;;;;3.10;1.40;;;14.10;99.90;;;;;;494066;241;29197;-73
2021/05/21 09:49:34;;;;;;;3.80;1.80;;;14.10;99.90;;;;;;494154;241;29700;-74
2021/05/21 09:51:35;;;;;;;2.00;1.73;;;14.20;99.90;;;;;;493797;241;29247;-75
2021/05/21 09:53:37;;;;;;;3.43;1.80;;;14.10;99.90;;;;;;494059;239;29390;-74
2021/05/21 09:55:37;;;;;;;1.50;1.40;;;14.10;99.90;;;;;;494080;241;28931;-75
2021/05/21 09:57:39;;;;;;;3.03;1.90;;;14.20;99.90;;;;;;494142;241;28806;-73
2021/05/21 09:59:40;;;;;;;7.43;1.50;;;14.50;99.90;;;;;;494099;241;28852;-73
2021/05/21 10:01:41;;;;;;;4.57;1.87;;;14.50;99.90;;;;;;494117;239;28793;-77
2021/05/21 10:03:42;;;;;;;3.90;1.80;;;14.50;99.90;;;;;;494114;239;28831;-73
2021/05/21 10:05:44;;;;;;;2.17;1.60;;;14.60;99.90;;;;;;494067;239;29291;-75
2021/05/21 10:07:47;;;;;;;1.60;1.50;;;14.60;99.90;;;;;;494096;241;28886;-75
2021/05/21 10:09:46;;;;;;;1.73;1.27;;;14.50;99.90;;;;;;494020;241;28931;-74
2021/05/21 10:11:47;;;;;;;1.97;1.77;;;14.80;99.90;;;;;;493545;241;28858;-73
2021/05/21 10:13:49;;;;;;;1.73;1.63;;;14.70;99.90;;;;;;493831;241;29309;-73
2021/05/21 10:15:50;;;;;;;3.50;2.20;;;14.60;99.90;;;;;;494013;241;29442;-73
2021/05/21 10:17:51;;;;;;;9.17;4.03;;;14.70;99.90;;;;;;494069;241;29342;-75
2021/05/21 10:19:54;;;;;;;10.37;2.90;;;14.90;99.90;;;;;;494100;241;29001;-74
2021/05/21 10:21:54;;;;;;;3.37;2.10;;;14.80;99.90;;;;;;494065;241;29187;-73
2021/05/21 10:23:55;;;;;;;4.60;2.00;;;14.70;99.90;;;;;;494066;241;28835;-75
2021/05/21 10:25:56;;;;;;;4.93;1.97;;;14.80;99.90;;;;;;494077;241;29303;-75
2021/05/21 10:27:57;;;;;;;3.00;1.70;;;15.00;99.90;;;;;;494139;241;28804;-73
2021/05/21 10:29:59;;;;;;;1.87;1.60;;;15.20;99.90;;;;;;494116;241;28857;-73
2021/05/21 10:32:00;;;;;;;2.70;1.73;;;15.10;99.90;;;;;;494131;241;28845;-73